aviador You're here:

KRMG Decoded Metar

ROME in GA, USA
Report Time2018-01-17 05:53:00
UTC Time2018-01-17 06:45:22
Flight Rules vfr VFR
Wind360° at 09 kt
W.Decomp.*RWY 01: 8.9 kt HW 1.3 kt LCW
RWY 07: 3.4 kt HW 8.3 kt LCW
Visibility9999 m
Phenomena:N/A
Clouds:Few 050 Hf
Broken 070 Hf
Overcast 085 Hf
Expected CloudBase > 2,400 ft AGL from Temp-Dew spread
Ceiling7,000 ft
Temp-6°C (ISA -20)
Dew Point-12°C (63% RH)
AAT-12.4°C
QNH1031 hPa
Density Alt-2,385 ft
Elevation633 ft
Report Wrong Elevation
Raw Report
METAR KRMG 170553Z AUTO 36009KT 10SM FEW050 BKN070 OVC085 M06/M12 A3045
RMK AO2 SLP312 60003 T10611122 11011 21061 58010=

Extra information for KRMG:More info

Metar Taf Metar & Taf Last 4 Metars F.Rules Stats Wind Profile Meteogram Temp Stats Airport Information Weather charts Add Link Nearby VenuesMetar ALERT Operation Metar Decoded Social comments

AIRNAV info for KRMG